Time;durP1;ratioP1;P1;durP2;ratioP2;P2;SDS_P1;SDS_P2;PMS_P1;PMS_P2;Temp;Humidity;BMP_temperature;BMP_pressure;BME280_temperature;BME280_humidity;BME280_pressure;Samples;Min_cycle;Max_cycle;Signal;HPM_P1;HPM_P2
2022/09/20 00:01:39;;;;;;;11.02;2.62;;;;;;;;;;4421663;32;20469;-71
2022/09/20 00:04:05;;;;;;;;;;;;;;;;;;4421904;32;20038;-71
2022/09/20 00:06:31;;;;;;;12.20;3.30;;;;;;;;;;4420274;32;19944;-73
2022/09/20 00:08:58;;;;;;;9.13;3.28;;;;;;;;;;4420294;32;20371;-72
2022/09/20 00:11:27;;;;;;;9.90;3.00;;;;;;;;;;4422291;32;20056;-73
2022/09/20 00:13:55;;;;;;;8.80;3.22;;;;;;;;;;4436251;32;20103;-73
2022/09/20 00:16:23;;;;;;;10.75;2.55;;;;;;;;;;4434458;32;20029;-72
2022/09/20 00:18:49;;;;;;;10.55;2.22;;;;;;;;;;4435975;32;20056;-72
2022/09/20 00:21:16;;;;;;;15.57;3.80;;;;;;;;;;4435353;32;20332;-73
2022/09/20 00:23:41;;;;;;;10.32;3.85;;;;;;;;;;4436610;32;20045;-72
2022/09/20 00:26:06;;;;;;;10.35;3.05;;;;;;;;;;4435720;32;20074;-73
2022/09/20 00:28:33;;;;;;;10.95;3.15;;;;;;;;;;4436711;32;20065;-73
2022/09/20 00:30:59;;;;;;;12.30;3.33;;;;;;;;;;4436443;32;20021;-72
2022/09/20 00:35:06;;;;;;;10.45;3.55;;;;;;;;;;4435905;32;20133;-72
2022/09/20 00:36:13;;;;;;;8.73;2.55;;;;;;;;;;4435841;32;20083;-72
2022/09/20 00:38:38;;;;;;;12.98;2.80;;;;;;;;;;4435165;32;20038;-72
2022/09/20 00:41:03;;;;;;;9.70;2.85;;;;;;;;;;4421594;32;20026;-72
2022/09/20 00:43:28;;;;;;;;;;;;;;;;;;4420905;32;20026;-73
2022/09/20 00:46:01;;;;;;;9.55;2.90;;;;;;;;;;4420698;32;20012;-73
2022/09/20 00:48:28;;;;;;;12.77;2.87;;;;;;;;;;4422210;32;20033;-73
2022/09/20 00:50:55;;;;;;;8.43;2.58;;;;;;;;;;4420488;32;20371;-73
2022/09/20 00:53:25;;;;;;;20.15;4.35;;;;;;;;;;4420172;32;20030;-71
2022/09/20 00:55:52;;;;;;;11.40;2.83;;;;;;;;;;4439123;32;20052;-71
2022/09/20 00:58:18;;;;;;;9.27;2.70;;;;;;;;;;4439831;32;20025;-69
2022/09/20 01:00:44;;;;;;;10.50;2.80;;;;;;;;;;4438145;32;20034;-72
2022/09/20 01:03:10;;;;;;;6.85;2.42;;;;;;;;;;4440495;32;20400;-71
2022/09/20 01:05:36;;;;;;;9.75;2.53;;;;;;;;;;4440218;32;20048;-73
2022/09/20 01:08:01;;;;;;;9.32;2.78;;;;;;;;;;4428177;32;20051;-72
2022/09/20 01:10:27;;;;;;;8.95;2.95;;;;;;;;;;4423170;32;20030;-72
2022/09/20 01:12:52;;;;;;;;;;;;;;;;;;4422419;32;20092;-73
2022/09/20 01:15:18;;;;;;;12.45;3.95;;;;;;;;;;4423641;32;19942;-73
2022/09/20 01:17:49;;;;;;;15.38;5.35;;;;;;;;;;4423698;32;20156;-73
2022/09/20 01:20:14;;;;;;;8.23;3.87;;;;;;;;;;4424107;32;20034;-73
2022/09/20 01:22:47;;;;;;;7.18;3.20;;;;;;;;;;4434348;32;20059;-73
2022/09/20 01:25:19;;;;;;;12.98;4.05;;;;;;;;;;4439965;32;20060;-74
2022/09/20 01:27:45;;;;;;;20.15;5.90;;;;;;;;;;4438660;32;20018;-73
2022/09/20 01:30:33;;;;;;;14.43;3.50;;;;;;;;;;4438172;32;20104;-73
2022/09/20 01:33:03;;;;;;;8.90;4.45;;;;;;;;;;4431834;32;20042;-73
2022/09/20 01:35:31;;;;;;;7.40;3.37;;;;;;;;;;4422618;32;20416;-73
2022/09/20 01:38:17;;;;;;;11.20;4.00;;;;;;;;;;4424510;32;20022;-73
2022/09/20 01:40:48;;;;;;;10.20;3.03;;;;;;;;;;4423704;32;20091;-73
2022/09/20 01:43:26;;;;;;;10.02;2.70;;;;;;;;;;4424269;32;20026;-75
2022/09/20 01:45:51;;;;;;;9.90;3.80;;;;;;;;;;4422323;32;20056;-73
2022/09/20 01:48:29;;;;;;;8.10;3.90;;;;;;;;;;4424126;32;20022;-73
2022/09/20 01:50:54;;;;;;;8.13;3.20;;;;;;;;;;4423388;32;20056;-73
2022/09/20 01:53:19;;;;;;;11.52;4.70;;;;;;;;;;4423589;32;20026;-72
2022/09/20 01:55:56;;;;;;;9.75;3.72;;;;;;;;;;4423766;32;20063;-74
2022/09/20 01:58:40;;;;;;;12.00;3.75;;;;;;;;;;4423433;32;20163;-71
2022/09/20 02:01:22;;;;;;;11.38;3.28;;;;;;;;;;4438904;32;20048;-74
2022/09/20 02:03:48;;;;;;;12.93;3.78;;;;;;;;;;4439829;32;20060;-73
2022/09/20 02:06:19;;;;;;;8.00;3.20;;;;;;;;;;4436142;32;20345;-74
2022/09/20 02:08:44;;;;;;;8.05;2.87;;;;;;;;;;4438794;32;20117;-73
2022/09/20 02:11:11;;;;;;;10.55;3.20;;;;;;;;;;4438946;32;20037;-74
2022/09/20 02:13:36;;;;;;;9.48;3.83;;;;;;;;;;4438420;32;20376;-73
2022/09/20 02:16:04;;;;;;;12.88;3.58;;;;;;;;;;4437445;32;20095;-73
2022/09/20 02:18:38;;;;;;;15.23;3.37;;;;;;;;;;4438550;32;20411;-73
2022/09/20 02:21:16;;;;;;;10.70;4.15;;;;;;;;;;4437307;32;20374;-73
2022/09/20 02:23:41;;;;;;;11.18;4.05;;;;;;;;;;4438296;32;20450;-73
2022/09/20 02:26:29;;;;;;;13.80;4.87;;;;;;;;;;4436074;32;20069;-74
2022/09/20 02:29:00;;;;;;;8.82;3.87;;;;;;;;;;4414897;32;20333;-73
2022/09/20 02:31:37;;;;;;;9.70;4.05;;;;;;;;;;4422721;32;20019;-73
2022/09/20 02:34:17;;;;;;;15.95;3.10;;;;;;;;;;4421800;32;20095;-73
2022/09/20 02:36:42;;;;;;;10.95;4.45;;;;;;;;;;4423283;32;20067;-73
2022/09/20 02:39:14;;;;;;;14.80;4.90;;;;;;;;;;4423200;32;20400;-73
2022/09/20 02:41:58;;;;;;;12.37;4.00;;;;;;;;;;4422373;32;20443;-73
2022/09/20 02:44:52;;;;;;;;;;;;;;;;;;;;;
2022/09/20 02:47:26;;;;;;;14.80;5.15;;;;;;;;;;4419969;32;20041;-72
2022/09/20 02:50:11;;;;;;;11.90;4.47;;;;;;;;;;4422224;32;20018;-73
2022/09/20 02:52:39;;;;;;;12.43;4.30;;;;;;;;;;4421691;32;20033;-75
2022/09/20 02:55:10;;;;;;;12.18;4.70;;;;;;;;;;4420245;32;20080;-74
2022/09/20 02:57:43;;;;;;;10.75;4.68;;;;;;;;;;4421869;32;20351;-74
2022/09/20 03:00:12;;;;;;;16.12;4.95;;;;;;;;;;4429083;32;20038;-74
2022/09/20 03:02:59;;;;;;;16.80;6.43;;;;;;;;;;4436055;32;20030;-74
2022/09/20 03:05:51;;;;;;;9.18;4.37;;;;;;;;;;4439080;32;20029;-73
2022/09/20 03:08:31;;;;;;;14.35;5.00;;;;;;;;;;4437717;32;20029;-73
2022/09/20 03:11:17;;;;;;;15.95;4.93;;;;;;;;;;4436936;32;20420;-73
2022/09/20 03:14:01;;;;;;;13.05;4.82;;;;;;;;;;4436192;32;20491;-73
2022/09/20 03:16:33;;;;;;;12.50;4.65;;;;;;;;;;4437604;32;20094;-73
2022/09/20 03:19:07;;;;;;;12.93;4.60;;;;;;;;;;4437285;32;20048;-74
2022/09/20 03:21:43;;;;;;;11.52;4.07;;;;;;;;;;4431819;32;20061;-74
2022/09/20 03:24:18;;;;;;;13.43;4.85;;;;;;;;;;4422520;32;20084;-74
2022/09/20 03:26:51;;;;;;;11.75;5.22;;;;;;;;;;4422368;32;20026;-74
2022/09/20 03:29:35;;;;;;;10.10;4.82;;;;;;;;;;4420071;32;20064;-74
2022/09/20 03:32:12;;;;;;;10.20;4.40;;;;;;;;;;4435348;32;20048;-73
2022/09/20 03:34:55;;;;;;;13.68;4.68;;;;;;;;;;4437822;32;20049;-75
2022/09/20 03:37:21;;;;;;;6.70;4.87;;;;;;;;;;4436126;32;20030;-74
2022/09/20 03:40:05;;;;;;;16.50;5.72;;;;;;;;;;4436716;32;20044;-75
2022/09/20 03:42:30;;;;;;;11.12;4.93;;;;;;;;;;4436157;32;20067;-73
2022/09/20 03:45:14;;;;;;;10.05;4.80;;;;;;;;;;4437581;32;20432;-73
2022/09/20 03:47:39;;;;;;;15.27;5.35;;;;;;;;;;4437895;32;20110;-74
2022/09/20 03:50:05;;;;;;;16.05;5.95;;;;;;;;;;4437513;32;20033;-73
2022/09/20 03:52:30;;;;;;;;;;;;;;;;;;4437030;32;20034;-73
2022/09/20 03:55:07;;;;;;;19.20;6.63;;;;;;;;;;4436778;32;19952;-74
2022/09/20 03:57:45;;;;;;;17.83;5.57;;;;;;;;;;4438022;32;20025;-72
2022/09/20 04:00:22;;;;;;;18.90;6.05;;;;;;;;;;4438158;32;20026;-72
2022/09/20 04:03:07;;;;;;;16.67;5.57;;;;;;;;;;4437075;32;20026;-73
2022/09/20 04:05:44;;;;;;;14.65;5.12;;;;;;;;;;4421420;32;20107;-73
2022/09/20 04:08:24;;;;;;;13.20;6.80;;;;;;;;;;4421017;32;20072;-73
2022/09/20 04:11:14;;;;;;;10.57;4.40;;;;;;;;;;4421057;32;20085;-72
2022/09/20 04:14:00;;;;;;;11.60;5.45;;;;;;;;;;4420786;32;20041;-73
2022/09/20 04:16:33;;;;;;;15.30;6.18;;;;;;;;;;4420987;32;20034;-73
2022/09/20 04:19:07;;;;;;;14.63;5.62;;;;;;;;;;4429398;32;20034;-72
2022/09/20 04:21:36;;;;;;;13.65;5.35;;;;;;;;;;4437875;32;20065;-72
2022/09/20 04:24:08;;;;;;;17.52;4.72;;;;;;;;;;4436169;32;20052;-72
2022/09/20 04:26:39;;;;;;;13.00;5.20;;;;;;;;;;4435529;32;20100;-74
2022/09/20 04:29:13;;;;;;;15.50;5.20;;;;;;;;;;4434953;32;20057;-70
2022/09/20 04:31:41;;;;;;;8.93;4.80;;;;;;;;;;4434695;32;20085;-73
2022/09/20 04:34:13;;;;;;;15.88;3.97;;;;;;;;;;4435342;32;20120;-73
2022/09/20 04:37:02;;;;;;;11.18;4.68;;;;;;;;;;4435912;32;20026;-73
2022/09/20 04:39:41;;;;;;;9.15;4.62;;;;;;;;;;4436878;32;20041;-73
2022/09/20 04:42:29;;;;;;;12.93;4.18;;;;;;;;;;4437257;32;20010;-73
2022/09/20 04:45:13;;;;;;;29.75;14.18;;;;;;;;;;4435297;32;20097;-70
2022/09/20 04:47:55;;;;;;;11.25;5.12;;;;;;;;;;4435319;32;20068;-73
2022/09/20 04:50:39;;;;;;;13.70;4.97;;;;;;;;;;4434927;32;20449;-73
2022/09/20 04:53:14;;;;;;;9.73;3.67;;;;;;;;;;4435758;32;20029;-73
2022/09/20 04:55:52;;;;;;;8.90;3.75;;;;;;;;;;4436065;32;20089;-73
2022/09/20 04:58:36;;;;;;;10.70;3.87;;;;;;;;;;4435690;32;20049;-73
2022/09/20 05:01:27;;;;;;;7.82;3.87;;;;;;;;;;4435337;32;20064;-72
2022/09/20 05:04:11;;;;;;;8.65;3.35;;;;;;;;;;4433006;32;20056;-74
2022/09/20 05:07:03;;;;;;;11.85;4.15;;;;;;;;;;4423423;32;20018;-73
2022/09/20 05:09:40;;;;;;;9.45;3.30;;;;;;;;;;4420688;32;20072;-72
2022/09/20 05:12:14;;;;;;;9.40;4.45;;;;;;;;;;4422005;32;20075;-73
2022/09/20 05:14:40;;;;;;;9.98;3.80;;;;;;;;;;4420474;32;20405;-72
2022/09/20 05:17:22;;;;;;;9.18;3.67;;;;;;;;;;4419939;32;20328;-67
2022/09/20 05:20:07;;;;;;;13.60;3.95;;;;;;;;;;4430152;32;20117;-73
2022/09/20 05:22:44;;;;;;;18.52;3.78;;;;;;;;;;4421182;32;20030;-72
2022/09/20 05:25:21;;;;;;;13.23;4.32;;;;;;;;;;4431245;32;20052;-73
2022/09/20 05:27:57;;;;;;;14.85;4.43;;;;;;;;;;4418621;32;20022;-72
2022/09/20 05:31:01;;;;;;;13.25;4.18;;;;;;;;;;4420429;32;20064;-73
2022/09/20 05:33:36;;;;;;;13.30;5.18;;;;;;;;;;4386831;32;20525;-73
2022/09/20 05:36:20;;;;;;;9.10;3.25;;;;;;;;;;4389020;32;20088;-73
2022/09/20 05:39:06;;;;;;;15.85;4.12;;;;;;;;;;4411270;32;20424;-72
2022/09/20 05:41:44;;;;;;;11.68;4.15;;;;;;;;;;4421731;32;20359;-73
2022/09/20 05:44:10;;;;;;;11.10;3.83;;;;;;;;;;4422436;32;20026;-70
2022/09/20 05:46:52;;;;;;;13.07;4.32;;;;;;;;;;4421472;32;20022;-73
2022/09/20 05:49:33;;;;;;;15.02;4.25;;;;;;;;;;4422941;32;20501;-72
2022/09/20 05:52:20;;;;;;;13.62;4.00;;;;;;;;;;4421495;32;20140;-72
2022/09/20 05:55:25;;;;;;;10.27;3.95;;;;;;;;;;4422558;32;20030;-72
2022/09/20 06:45:36;;;;;;;14.32;3.20;;;;;;;;;;4434288;32;20110;-72
2022/09/20 06:48:02;;;;;;;11.75;3.90;;;;;;;;;;4436105;32;20344;-73
2022/09/20 06:50:27;;;;;;;17.08;3.60;;;;;;;;;;4437128;32;20082;-72
2022/09/20 06:55:50;;;;;;;7.40;2.62;;;;;;;;;;4426519;32;20030;-72
2022/09/20 06:58:18;;;;;;;13.55;3.35;;;;;;;;;;4438276;32;20018;-72
2022/09/20 07:03:41;;;;;;;15.35;2.58;;;;;;;;;;4389528;32;20107;-73
2022/09/20 07:06:10;;;;;;;76.93;12.00;;;;;;;;;;4436380;32;20085;-73
2022/09/20 07:08:35;;;;;;;37.65;6.57;;;;;;;;;;4436987;32;20018;-70
2022/09/20 07:11:04;;;;;;;10.00;2.30;;;;;;;;;;4436972;32;20041;-68
2022/09/20 07:13:30;;;;;;;8.85;2.78;;;;;;;;;;4436865;32;20101;-71
2022/09/20 07:16:05;;;;;;;13.32;2.95;;;;;;;;;;4436059;32;20475;-72
2022/09/20 07:18:32;;;;;;;10.07;3.17;;;;;;;;;;4436542;32;20025;-69
2022/09/20 07:20:57;;;;;;;19.02;3.70;;;;;;;;;;4437861;32;20048;-69
2022/09/20 07:26:44;;;;;;;6.70;2.83;;;;;;;;;;4437178;32;20075;-71
2022/09/20 07:29:45;;;;;;;7.15;2.55;;;;;;;;;;4437373;32;20025;-71
2022/09/20 07:47:32;;;;;;;7.12;1.95;;;;;;;;;;4436346;32;20087;-71
2022/09/20 08:56:33;;;;;;;9.65;2.05;;;;;;;;;;4437950;32;20086;-70
2022/09/20 08:58:59;;;;;;;5.22;1.65;;;;;;;;;;4436432;32;20030;-70
2022/09/20 09:04:22;;;;;;;10.57;1.70;;;;;;;;;;4400814;32;20454;-71
2022/09/20 09:06:52;;;;;;;6.28;1.60;;;;;;;;;;4435415;32;20021;-71
2022/09/20 09:12:36;;;;;;;6.60;1.90;;;;;;;;;;4352108;33;20354;-71
2022/09/20 09:15:14;;;;;;;8.63;1.95;;;;;;;;;;4358448;32;20094;-71
2022/09/20 09:17:39;;;;;;;7.57;2.17;;;;;;;;;;4416615;32;20033;-70
2022/09/20 09:20:34;;;;;;;7.87;1.95;;;;;;;;;;4438804;32;20090;-69
2022/09/20 09:23:01;;;;;;;7.55;1.90;;;;;;;;;;4427248;32;20026;-71
2022/09/20 09:25:32;;;;;;;10.98;2.20;;;;;;;;;;4438491;32;20079;-70
2022/09/20 09:28:00;;;;;;;7.10;1.87;;;;;;;;;;4438874;32;20022;-70
2022/09/20 09:30:25;;;;;;;11.27;2.00;;;;;;;;;;4438831;32;20029;-70
2022/09/20 09:32:51;;;;;;;6.87;2.00;;;;;;;;;;4438909;32;20111;-70
2022/09/20 09:38:43;;;;;;;;;;;;;;;;;;;;;
2022/09/20 09:41:38;;;;;;;5.87;1.75;;;;;;;;;;4438304;32;20025;-70
2022/09/20 09:44:17;;;;;;;6.55;1.92;;;;;;;;;;4438306;32;20057;-70
2022/09/20 09:46:53;;;;;;;7.62;1.70;;;;;;;;;;4438496;32;20071;-70
2022/09/20 09:49:22;;;;;;;9.13;1.95;;;;;;;;;;4439086;32;20052;-71
2022/09/20 09:52:06;;;;;;;7.68;1.62;;;;;;;;;;4424469;32;20420;-71
2022/09/20 09:54:38;;;;;;;10.18;2.15;;;;;;;;;;4438242;32;20051;-70
2022/09/20 10:00:13;;;;;;;6.30;2.42;;;;;;;;;;4360391;32;20058;-69
2022/09/20 10:02:53;;;;;;;7.65;1.83;;;;;;;;;;4434851;32;20102;-69
2022/09/20 10:05:28;;;;;;;8.95;2.37;;;;;;;;;;4438306;32;20048;-70
2022/09/20 10:08:07;;;;;;;8.55;1.83;;;;;;;;;;4438250;32;20088;-72
2022/09/20 10:10:40;;;;;;;7.40;2.00;;;;;;;;;;4437775;32;20438;-72
2022/09/20 10:13:17;;;;;;;6.00;1.60;;;;;;;;;;4424329;32;20375;-70
2022/09/20 10:16:19;;;;;;;5.95;1.90;;;;;;;;;;4437951;32;20013;-70
2022/09/20 10:18:43;;;;;;;8.35;2.00;;;;;;;;;;4437289;32;20053;-72
2022/09/20 10:21:09;;;;;;;7.37;1.83;;;;;;;;;;4437601;32;20368;-71
2022/09/20 10:23:55;;;;;;;8.82;2.30;;;;;;;;;;4437709;32;20018;-71
2022/09/20 10:32:36;;;;;;;8.80;2.17;;;;;;;;;;4361337;32;20090;-70
2022/09/20 10:35:22;;;;;;;8.15;2.17;;;;;;;;;;4438168;32;20042;-71
2022/09/20 10:38:06;;;;;;;10.00;2.37;;;;;;;;;;4437637;32;20018;-70
2022/09/20 10:43:51;;;;;;;7.37;1.70;;;;;;;;;;4437292;32;20078;-71
2022/09/20 10:52:40;;;;;;;7.00;2.17;;;;;;;;;;4438391;32;20035;-71
2022/09/20 10:55:05;;;;;;;8.10;2.30;;;;;;;;;;4437520;32;20429;-70
2022/09/20 10:57:49;;;;;;;10.23;1.98;;;;;;;;;;4436811;32;20054;-70
2022/09/20 11:00:32;;;;;;;5.07;1.80;;;;;;;;;;4436894;32;20078;-70
2022/09/20 11:03:22;;;;;;;8.20;1.98;;;;;;;;;;4437020;32;20026;-70
2022/09/20 11:06:06;;;;;;;9.48;1.55;;;;;;;;;;4436857;32;20351;-70
2022/09/20 11:08:36;;;;;;;5.10;1.15;;;;;;;;;;4436764;32;20052;-69
2022/09/20 11:11:04;;;;;;;6.35;2.05;;;;;;;;;;4436613;32;20379;-70
2022/09/20 11:13:39;;;;;;;3.45;1.55;;;;;;;;;;4422641;32;20309;-71
2022/09/20 11:16:18;;;;;;;6.32;1.50;;;;;;;;;;4437291;32;20383;-70
2022/09/20 11:18:46;;;;;;;6.70;1.77;;;;;;;;;;4436531;32;20064;-71
2022/09/20 11:21:24;;;;;;;7.62;1.90;;;;;;;;;;4436549;32;20045;-70
2022/09/20 11:24:02;;;;;;;3.70;1.52;;;;;;;;;;4436560;32;20347;-71
2022/09/20 11:26:30;;;;;;;7.28;1.30;;;;;;;;;;4436922;32;20073;-71
2022/09/20 11:29:16;;;;;;;4.28;1.30;;;;;;;;;;4436825;32;20074;-70
2022/09/20 11:31:43;;;;;;;5.32;1.50;;;;;;;;;;4395922;32;20064;-70
2022/09/20 11:34:21;;;;;;;4.40;1.35;;;;;;;;;;4437421;32;20026;-70
2022/09/20 11:36:51;;;;;;;9.35;1.42;;;;;;;;;;4437613;32;20021;-70
2022/09/20 11:39:35;;;;;;;9.00;2.00;;;;;;;;;;4435864;32;20026;-71
2022/09/20 11:42:00;;;;;;;5.25;1.40;;;;;;;;;;4436511;32;20021;-71
2022/09/20 11:44:29;;;;;;;4.05;1.25;;;;;;;;;;4436855;32;20351;-70
2022/09/20 11:47:06;;;;;;;6.20;1.40;;;;;;;;;;4422655;32;20018;-70
2022/09/20 11:49:51;;;;;;;3.60;1.40;;;;;;;;;;4436682;32;20030;-70
2022/09/20 11:55:22;;;;;;;4.97;1.35;;;;;;;;;;4436370;32;20363;-70
2022/09/20 11:58:07;;;;;;;5.80;1.70;;;;;;;;;;4436270;32;20080;-70
2022/09/20 12:00:36;;;;;;;5.15;1.70;;;;;;;;;;4437404;32;20041;-70
2022/09/20 12:03:03;;;;;;;6.18;1.50;;;;;;;;;;4436074;32;20021;-71
2022/09/20 12:05:33;;;;;;;5.32;1.45;;;;;;;;;;4435398;32;20132;-69
2022/09/20 12:07:59;;;;;;;5.28;1.52;;;;;;;;;;4437361;32;20056;-70
2022/09/20 12:10:32;;;;;;;6.65;1.35;;;;;;;;;;4435534;32;20021;-69
2022/09/20 12:13:17;;;;;;;6.40;1.50;;;;;;;;;;4435887;32;20025;-70
2022/09/20 12:15:42;;;;;;;14.82;1.83;;;;;;;;;;4436467;32;20059;-70
2022/09/20 12:18:14;;;;;;;4.90;1.15;;;;;;;;;;4436494;32;20404;-70
2022/09/20 12:20:43;;;;;;;6.55;1.40;;;;;;;;;;4436014;32;20048;-70
2022/09/20 12:23:48;;;;;;;5.25;1.50;;;;;;;;;;4437122;32;20025;-71
2022/09/20 12:26:19;;;;;;;4.93;1.33;;;;;;;;;;4435974;32;20052;-70
2022/09/20 12:29:04;;;;;;;9.60;1.95;;;;;;;;;;4435895;32;20044;-71
2022/09/20 12:31:32;;;;;;;6.43;1.70;;;;;;;;;;4436334;32;20026;-71
2022/09/20 12:34:02;;;;;;;5.35;1.15;;;;;;;;;;4435753;32;20075;-71
2022/09/20 12:36:38;;;;;;;7.55;1.30;;;;;;;;;;4436041;32;20026;-69
2022/09/20 12:39:03;;;;;;;6.00;1.95;;;;;;;;;;4436277;32;20095;-70
2022/09/20 12:41:59;;;;;;;;;;;;;;;;;;;;;
2022/09/20 12:57:11;;;;;;;6.87;2.33;;;;;;;;;;4347028;33;20053;-72
2022/09/20 12:59:36;;;;;;;6.90;2.08;;;;;;;;;;4345000;33;20061;-70
2022/09/20 13:02:20;;;;;;;7.45;1.62;;;;;;;;;;4366945;32;20030;-71
2022/09/20 13:04:48;;;;;;;5.00;1.52;;;;;;;;;;4423577;32;20049;-70
2022/09/20 13:07:33;;;;;;;8.50;2.33;;;;;;;;;;4423281;32;20058;-70
2022/09/20 13:10:02;;;;;;;9.18;3.50;;;;;;;;;;4423272;32;20052;-70
2022/09/20 13:12:27;;;;;;;9.00;2.08;;;;;;;;;;4422731;32;20052;-70
2022/09/20 13:14:53;;;;;;;6.82;1.70;;;;;;;;;;4423396;32;20018;-70
2022/09/20 13:17:23;;;;;;;8.90;2.22;;;;;;;;;;4424886;32;20030;-70
2022/09/20 13:19:58;;;;;;;6.22;1.98;;;;;;;;;;4423582;32;20064;-70
2022/09/20 13:22:33;;;;;;;6.72;1.33;;;;;;;;;;4423583;32;20062;-70
2022/09/20 13:25:01;;;;;;;4.12;1.60;;;;;;;;;;4424461;32;20026;-71
2022/09/20 13:27:41;;;;;;;5.93;1.55;;;;;;;;;;4424188;32;20026;-71
2022/09/20 13:30:41;;;;;;;5.12;1.95;;;;;;;;;;4423349;32;20071;-72
2022/09/20 13:36:41;;;;;;;;;;;;;;;;;;;;;
2022/09/20 13:42:25;;;;;;;7.87;1.70;;;;;;;;;;4375242;32;20527;-71
2022/09/20 13:44:57;;;;;;;5.60;1.65;;;;;;;;;;4423478;32;20074;-71
2022/09/20 13:47:27;;;;;;;4.60;1.33;;;;;;;;;;4422737;32;20067;-72
2022/09/20 13:49:52;;;;;;;5.87;2.20;;;;;;;;;;4408748;32;20068;-71
2022/09/20 13:52:24;;;;;;;3.62;1.77;;;;;;;;;;4422955;32;20327;-72
2022/09/20 13:54:50;;;;;;;9.30;2.87;;;;;;;;;;4422772;32;20048;-71
2022/09/20 13:57:20;;;;;;;7.72;1.73;;;;;;;;;;4422772;32;20030;-72
2022/09/20 13:59:58;;;;;;;;;;;;;;;;;;;;;
2022/09/20 14:02:32;;;;;;;4.78;1.80;;;;;;;;;;4413139;32;20076;-71
2022/09/20 14:08:02;;;;;;;4.68;1.65;;;;;;;;;;4359103;32;20124;-71
2022/09/20 14:19:45;;;;;;;5.75;1.40;;;;;;;;;;4272904;33;20463;-71
2022/09/20 14:29:04;;;;;;;3.25;1.45;;;;;;;;;;4258579;33;20073;-71
2022/09/20 14:34:22;;;;;;;4.55;1.50;;;;;;;;;;4272094;33;20029;-70
2022/09/20 14:36:51;;;;;;;7.12;1.45;;;;;;;;;;4295113;33;20422;-72
2022/09/20 14:39:36;;;;;;;3.20;1.08;;;;;;;;;;4385298;32;20034;-70
2022/09/20 14:42:02;;;;;;;2.05;1.10;;;;;;;;;;4421681;32;20075;-71
2022/09/20 14:48:02;;;;;;;2.78;1.02;;;;;;;;;;4375234;32;20085;-70
2022/09/20 14:50:31;;;;;;;7.22;1.67;;;;;;;;;;4375801;32;20096;-71
2022/09/20 14:56:11;;;;;;;4.43;1.20;;;;;;;;;;4359971;32;20408;-71
2022/09/20 14:58:55;;;;;;;4.93;1.27;;;;;;;;;;4421649;32;20129;-71
2022/09/20 15:01:29;;;;;;;5.22;1.62;;;;;;;;;;4421839;32;20075;-70
2022/09/20 15:03:57;;;;;;;4.45;1.45;;;;;;;;;;4421896;32;20050;-71
2022/09/20 15:06:23;;;;;;;3.03;1.02;;;;;;;;;;4421465;32;20072;-70
2022/09/20 15:08:48;;;;;;;4.30;1.40;;;;;;;;;;4422391;32;20034;-70
2022/09/20 15:11:44;;;;;;;;;;;;;;;;;;;;;
2022/09/20 15:17:25;;;;;;;7.90;1.20;;;;;;;;;;4394422;32;20117;-70
2022/09/20 15:19:51;;;;;;;2.37;0.90;;;;;;;;;;4421424;32;20030;-70
2022/09/20 15:22:40;;;;;;;2.20;1.20;;;;;;;;;;4421987;32;20449;-71
2022/09/20 15:25:15;;;;;;;2.20;1.10;;;;;;;;;;4421253;32;20064;-71
2022/09/20 15:27:41;;;;;;;;;;;;;;;;;;4422783;32;20099;-71
2022/09/20 15:30:10;;;;;;;3.37;1.20;;;;;;;;;;4421295;32;19937;-71
2022/09/20 15:32:36;;;;;;;3.70;1.27;;;;;;;;;;4421781;32;20087;-70
2022/09/20 15:38:07;;;;;;;5.37;1.50;;;;;;;;;;4421574;32;20394;-70
2022/09/20 15:40:33;;;;;;;3.78;1.20;;;;;;;;;;4420858;32;20325;-70
2022/09/20 15:49:11;;;;;;;4.45;1.40;;;;;;;;;;4421422;32;20117;-70
2022/09/20 15:51:37;;;;;;;5.28;1.20;;;;;;;;;;4421598;32;20052;-69
2022/09/20 15:54:05;;;;;;;6.28;1.60;;;;;;;;;;4421233;32;20063;-70
2022/09/20 15:59:16;;;;;;;3.85;1.50;;;;;;;;;;4421166;32;20115;-70
2022/09/20 16:01:51;;;;;;;3.20;1.17;;;;;;;;;;4420474;32;20041;-69
2022/09/20 16:04:25;;;;;;;5.45;1.70;;;;;;;;;;4421542;32;20060;-70
2022/09/20 16:07:01;;;;;;;4.82;1.30;;;;;;;;;;4407845;32;20086;-69
2022/09/20 16:09:27;;;;;;;4.35;1.35;;;;;;;;;;4421392;32;20018;-69
2022/09/20 16:11:58;;;;;;;7.07;1.55;;;;;;;;;;4420725;32;20056;-70
2022/09/20 16:14:24;;;;;;;4.40;1.42;;;;;;;;;;4420375;32;20076;-70
2022/09/20 16:17:07;;;;;;;4.15;1.10;;;;;;;;;;4420678;32;20079;-70
2022/09/20 16:19:55;;;;;;;3.08;1.10;;;;;;;;;;4421095;32;20071;-70
2022/09/20 16:22:39;;;;;;;4.85;1.55;;;;;;;;;;4411186;32;20244;-69
2022/09/20 16:25:05;;;;;;;6.53;1.80;;;;;;;;;;4419940;32;20396;-69
2022/09/20 16:27:33;;;;;;;2.67;1.30;;;;;;;;;;4421630;32;20055;-70
2022/09/20 16:29:59;;;;;;;7.22;1.48;;;;;;;;;;4420352;32;20060;-70
2022/09/20 16:32:38;;;;;;;3.50;1.17;;;;;;;;;;4407266;32;20339;-69
2022/09/20 16:35:06;;;;;;;4.53;1.30;;;;;;;;;;4414567;32;20026;-69
2022/09/20 16:37:32;;;;;;;8.30;1.73;;;;;;;;;;4420945;32;20056;-69
2022/09/20 16:39:57;;;;;;;6.45;1.55;;;;;;;;;;4419996;32;20038;-70
2022/09/20 16:42:23;;;;;;;3.47;1.62;;;;;;;;;;4420247;32;20402;-70
2022/09/20 16:44:48;;;;;;;4.85;1.20;;;;;;;;;;4420956;32;20043;-70
2022/09/20 16:47:21;;;;;;;4.20;1.95;;;;;;;;;;4419953;32;20508;-70
2022/09/20 16:50:08;;;;;;;5.97;1.05;;;;;;;;;;4420549;32;20070;-69
2022/09/20 16:52:37;;;;;;;7.12;1.30;;;;;;;;;;4417569;32;20034;-70
2022/09/20 16:55:03;;;;;;;2.58;1.45;;;;;;;;;;4420355;32;20041;-71
2022/09/20 16:57:39;;;;;;;;;;;;;;;;;;;;;
2022/09/20 17:00:27;;;;;;;3.75;1.20;;;;;;;;;;4421213;32;20100;-70
2022/09/20 17:03:06;;;;;;;;;;;;;;;;;;;;;
2022/09/20 17:11:58;;;;;;;8.55;1.83;;;;;;;;;;4343312;33;20405;-71
2022/09/20 17:14:24;;;;;;;7.05;2.12;;;;;;;;;;4415770;32;20087;-70
2022/09/20 17:16:50;;;;;;;6.68;2.47;;;;;;;;;;4420159;32;20101;-70
2022/09/20 17:25:08;;;;;;;10.85;2.12;;;;;;;;;;4358096;32;20085;-70
2022/09/20 17:27:38;;;;;;;5.07;1.70;;;;;;;;;;4407403;32;20474;-71
2022/09/20 17:30:33;;;;;;;12.85;2.15;;;;;;;;;;4420890;32;20026;-70
2022/09/20 17:33:29;;;;;;;8.00;2.20;;;;;;;;;;4420006;32;20411;-70
2022/09/20 17:35:58;;;;;;;6.87;1.60;;;;;;;;;;4406626;32;20018;-70
2022/09/20 17:44:42;;;;;;;6.68;2.00;;;;;;;;;;4400088;32;20030;-70
2022/09/20 17:47:10;;;;;;;18.02;3.72;;;;;;;;;;4423311;32;20003;-70
2022/09/20 17:49:48;;;;;;;6.93;2.90;;;;;;;;;;4422883;32;20396;-70
2022/09/20 17:52:55;;;;;;;;;;;;;;;;;;;;;
2022/09/20 17:55:22;;;;;;;7.22;2.08;;;;;;;;;;4359914;32;20057;-70
2022/09/20 18:04:21;;;;;;;9.38;2.08;;;;;;;;;;4316184;33;20498;-70
2022/09/20 18:10:27;;;;;;;;;;;;;;;;;;;;;
2022/09/20 18:19:18;;;;;;;8.50;2.65;;;;;;;;;;4266106;33;20411;-70
2022/09/20 18:28:21;;;;;;;8.48;2.65;;;;;;;;;;4345910;32;20016;-70
2022/09/20 18:31:11;;;;;;;6.68;2.12;;;;;;;;;;4374334;32;20060;-71
2022/09/20 18:34:29;;;;;;;4.37;1.92;;;;;;;;;;4315590;33;20024;-70
2022/09/20 18:37:12;;;;;;;7.05;2.45;;;;;;;;;;4315066;33;20033;-70
2022/09/20 18:39:51;;;;;;;;;;;;;;;;;;;;;
2022/09/20 18:42:56;;;;;;;8.10;2.20;;;;;;;;;;4320080;33;20032;-70
2022/09/20 18:45:37;;;;;;;5.32;2.50;;;;;;;;;;4329580;33;20036;-70
2022/09/20 18:51:19;;;;;;;7.80;2.37;;;;;;;;;;4344139;32;20080;-70
2022/09/20 18:53:45;;;;;;;7.82;2.45;;;;;;;;;;4407550;32;20058;-70
2022/09/20 18:59:40;;;;;;;;;;;;;;;;;;;;;
2022/09/20 19:11:25;;;;;;;7.05;2.92;;;;;;;;;;4423646;32;20029;-71
2022/09/20 19:13:55;;;;;;;12.20;3.12;;;;;;;;;;4427316;32;20083;-71
2022/09/20 19:16:29;;;;;;;11.00;2.67;;;;;;;;;;4432577;32;20118;-71
2022/09/20 19:19:13;;;;;;;8.38;2.80;;;;;;;;;;4434959;32;20431;-70
2022/09/20 19:21:58;;;;;;;6.30;2.22;;;;;;;;;;4434144;32;20071;-70
2022/09/20 19:30:22;;;;;;;10.93;3.03;;;;;;;;;;4433529;32;20113;-70
2022/09/20 19:32:48;;;;;;;10.35;3.58;;;;;;;;;;4429600;32;20025;-70
2022/09/20 19:35:18;;;;;;;10.95;4.18;;;;;;;;;;4434058;32;20133;-70
2022/09/20 19:38:09;;;;;;;11.85;5.03;;;;;;;;;;4433826;32;20037;-70
2022/09/20 19:41:03;;;;;;;10.63;4.05;;;;;;;;;;4433417;32;20107;-70
2022/09/20 19:43:30;;;;;;;12.23;3.75;;;;;;;;;;4432444;32;20033;-70
2022/09/20 19:46:25;;;;;;;10.40;4.00;;;;;;;;;;4419078;32;20086;-72
2022/09/20 19:49:13;;;;;;;10.63;4.18;;;;;;;;;;4426796;32;20087;-72
2022/09/20 19:51:41;;;;;;;10.18;4.80;;;;;;;;;;4434232;32;20071;-70
2022/09/20 19:54:11;;;;;;;12.13;5.47;;;;;;;;;;4433733;32;20034;-71
2022/09/20 19:59:47;;;;;;;13.07;4.60;;;;;;;;;;4429860;32;20398;-71
2022/09/20 20:17:39;;;;;;;12.27;4.60;;;;;;;;;;4372896;32;20081;-70
2022/09/20 20:20:15;;;;;;;14.38;5.32;;;;;;;;;;4371615;32;20070;-71
2022/09/20 20:23:01;;;;;;;9.75;4.53;;;;;;;;;;4407121;32;20054;-70
2022/09/20 20:25:36;;;;;;;11.75;4.60;;;;;;;;;;4414014;32;20051;-70
2022/09/20 20:28:32;;;;;;;16.67;4.68;;;;;;;;;;4418435;32;20116;-70
2022/09/20 20:30:59;;;;;;;10.97;4.27;;;;;;;;;;4418663;32;20021;-70
2022/09/20 20:36:48;;;;;;;7.20;2.78;;;;;;;;;;4357193;32;20089;-70
2022/09/20 20:39:21;;;;;;;8.35;3.58;;;;;;;;;;4357426;32;20151;-71
2022/09/20 20:41:51;;;;;;;10.85;3.62;;;;;;;;;;4407155;32;20018;-70
2022/09/20 20:44:17;;;;;;;14.13;5.03;;;;;;;;;;4420554;32;20087;-69
2022/09/20 20:46:43;;;;;;;10.68;4.57;;;;;;;;;;4420412;32;20100;-70
2022/09/20 20:49:30;;;;;;;;;;;;;;;;;;;;;
2022/09/20 21:24:58;;;;;;;12.07;4.87;;;;;;;;;;4408401;32;20080;-70